sensor_id;sensor_type;location;lat;lon;timestamp;P1;durP1;ratioP1;P2;durP2;ratioP2
19969;SDS011;10146;47.754;9.566;2024-02-26T00:01:55;1.55;;;1.45;;
19969;SDS011;10146;47.754;9.566;2024-02-26T00:04:20;2.20;;;1.70;;
19969;SDS011;10146;47.754;9.566;2024-02-26T00:06:46;1.75;;;1.65;;
19969;SDS011;10146;47.754;9.566;2024-02-26T00:09:13;1.10;;;1.10;;
19969;SDS011;10146;47.754;9.566;2024-02-26T00:11:38;1.30;;;1.20;;
19969;SDS011;10146;47.754;9.566;2024-02-26T00:14:04;2.35;;;1.40;;
19969;SDS011;10146;47.754;9.566;2024-02-26T00:16:30;1.88;;;1.42;;
19969;SDS011;10146;47.754;9.566;2024-02-26T00:18:56;1.65;;;1.40;;
19969;SDS011;10146;47.754;9.566;2024-02-26T00:21:21;1.30;;;1.20;;
19969;SDS011;10146;47.754;9.566;2024-02-26T00:23:48;1.50;;;1.40;;
19969;SDS011;10146;47.754;9.566;2024-02-26T00:26:15;1.30;;;1.20;;
19969;SDS011;10146;47.754;9.566;2024-02-26T00:28:40;1.98;;;1.40;;
19969;SDS011;10146;47.754;9.566;2024-02-26T00:31:06;1.40;;;1.30;;
19969;SDS011;10146;47.754;9.566;2024-02-26T00:33:31;1.48;;;1.25;;
19969;SDS011;10146;47.754;9.566;2024-02-26T00:35:57;1.45;;;1.27;;
19969;SDS011;10146;47.754;9.566;2024-02-26T00:38:23;1.95;;;1.23;;
19969;SDS011;10146;47.754;9.566;2024-02-26T00:40:48;1.48;;;1.00;;
19969;SDS011;10146;47.754;9.566;2024-02-26T00:43:14;2.22;;;1.35;;
19969;SDS011;10146;47.754;9.566;2024-02-26T00:45:39;1.52;;;1.20;;
19969;SDS011;10146;47.754;9.566;2024-02-26T00:48:05;1.38;;;1.20;;
19969;SDS011;10146;47.754;9.566;2024-02-26T00:50:32;1.20;;;1.10;;
19969;SDS011;10146;47.754;9.566;2024-02-26T00:52:58;1.40;;;1.30;;
19969;SDS011;10146;47.754;9.566;2024-02-26T00:55:24;1.67;;;1.50;;
19969;SDS011;10146;47.754;9.566;2024-02-26T00:57:50;2.58;;;1.30;;
19969;SDS011;10146;47.754;9.566;2024-02-26T01:00:15;1.85;;;1.30;;
19969;SDS011;10146;47.754;9.566;2024-02-26T01:02:41;2.00;;;1.40;;
19969;SDS011;10146;47.754;9.566;2024-02-26T01:05:07;1.55;;;1.25;;
19969;SDS011;10146;47.754;9.566;2024-02-26T01:07:36;1.90;;;1.10;;
19969;SDS011;10146;47.754;9.566;2024-02-26T01:10:02;1.63;;;1.20;;
19969;SDS011;10146;47.754;9.566;2024-02-26T01:12:28;1.20;;;1.10;;
19969;SDS011;10146;47.754;9.566;2024-02-26T01:14:54;1.48;;;1.05;;
19969;SDS011;10146;47.754;9.566;2024-02-26T01:17:19;1.27;;;1.05;;
19969;SDS011;10146;47.754;9.566;2024-02-26T01:19:45;1.98;;;1.30;;
19969;SDS011;10146;47.754;9.566;2024-02-26T01:22:10;1.45;;;1.10;;
19969;SDS011;10146;47.754;9.566;2024-02-26T01:24:36;1.70;;;1.08;;
19969;SDS011;10146;47.754;9.566;2024-02-26T01:27:02;1.80;;;1.20;;
19969;SDS011;10146;47.754;9.566;2024-02-26T01:29:27;0.93;;;0.88;;
19969;SDS011;10146;47.754;9.566;2024-02-26T01:31:53;1.10;;;1.00;;
19969;SDS011;10146;47.754;9.566;2024-02-26T01:34:20;1.20;;;1.10;;
19969;SDS011;10146;47.754;9.566;2024-02-26T01:36:45;1.25;;;0.88;;
19969;SDS011;10146;47.754;9.566;2024-02-26T01:39:11;1.00;;;0.90;;
19969;SDS011;10146;47.754;9.566;2024-02-26T01:41:37;0.93;;;0.93;;
19969;SDS011;10146;47.754;9.566;2024-02-26T01:44:04;1.05;;;0.95;;
19969;SDS011;10146;47.754;9.566;2024-02-26T01:46:29;1.17;;;0.90;;
19969;SDS011;10146;47.754;9.566;2024-02-26T01:48:57;0.65;;;0.65;;
19969;SDS011;10146;47.754;9.566;2024-02-26T01:51:23;0.95;;;0.80;;
19969;SDS011;10146;47.754;9.566;2024-02-26T01:53:49;2.70;;;1.23;;
19969;SDS011;10146;47.754;9.566;2024-02-26T01:56:15;1.58;;;0.70;;
19969;SDS011;10146;47.754;9.566;2024-02-26T01:58:43;0.80;;;0.80;;
19969;SDS011;10146;47.754;9.566;2024-02-26T02:01:09;0.98;;;0.90;;
19969;SDS011;10146;47.754;9.566;2024-02-26T02:03:35;1.20;;;1.10;;
19969;SDS011;10146;47.754;9.566;2024-02-26T02:06:02;1.00;;;1.00;;
19969;SDS011;10146;47.754;9.566;2024-02-26T02:08:28;1.33;;;1.00;;
19969;SDS011;10146;47.754;9.566;2024-02-26T02:10:54;1.52;;;0.88;;
19969;SDS011;10146;47.754;9.566;2024-02-26T02:13:19;1.27;;;0.85;;
19969;SDS011;10146;47.754;9.566;2024-02-26T02:15:45;0.90;;;0.70;;
19969;SDS011;10146;47.754;9.566;2024-02-26T02:18:11;0.60;;;0.60;;
19969;SDS011;10146;47.754;9.566;2024-02-26T02:20:36;0.77;;;0.73;;
19969;SDS011;10146;47.754;9.566;2024-02-26T02:23:02;0.77;;;0.77;;
19969;SDS011;10146;47.754;9.566;2024-02-26T02:25:28;0.90;;;0.80;;
19969;SDS011;10146;47.754;9.566;2024-02-26T02:27:54;1.05;;;0.93;;
19969;SDS011;10146;47.754;9.566;2024-02-26T02:30:24;1.27;;;0.93;;
19969;SDS011;10146;47.754;9.566;2024-02-26T02:32:53;1.08;;;0.82;;
19969;SDS011;10146;47.754;9.566;2024-02-26T02:35:18;0.90;;;0.90;;
19969;SDS011;10146;47.754;9.566;2024-02-26T02:37:44;1.00;;;0.85;;
19969;SDS011;10146;47.754;9.566;2024-02-26T02:40:10;0.85;;;0.77;;
19969;SDS011;10146;47.754;9.566;2024-02-26T02:42:35;0.65;;;0.65;;
19969;SDS011;10146;47.754;9.566;2024-02-26T02:45:01;1.17;;;0.90;;
19969;SDS011;10146;47.754;9.566;2024-02-26T02:47:26;0.82;;;0.70;;
19969;SDS011;10146;47.754;9.566;2024-02-26T02:49:52;1.95;;;0.88;;
19969;SDS011;10146;47.754;9.566;2024-02-26T02:52:18;0.93;;;0.82;;
19969;SDS011;10146;47.754;9.566;2024-02-26T02:54:43;1.30;;;0.90;;
19969;SDS011;10146;47.754;9.566;2024-02-26T02:57:09;0.77;;;0.77;;
19969;SDS011;10146;47.754;9.566;2024-02-26T02:59:35;0.80;;;0.80;;
19969;SDS011;10146;47.754;9.566;2024-02-26T03:02:01;0.82;;;0.82;;
19969;SDS011;10146;47.754;9.566;2024-02-26T03:04:27;0.63;;;0.63;;
19969;SDS011;10146;47.754;9.566;2024-02-26T03:06:54;1.52;;;0.82;;
19969;SDS011;10146;47.754;9.566;2024-02-26T03:09:20;1.55;;;0.77;;
19969;SDS011;10146;47.754;9.566;2024-02-26T03:11:45;1.70;;;0.80;;
19969;SDS011;10146;47.754;9.566;2024-02-26T03:14:11;0.90;;;0.90;;
19969;SDS011;10146;47.754;9.566;2024-02-26T03:16:36;0.70;;;0.70;;
19969;SDS011;10146;47.754;9.566;2024-02-26T03:19:02;2.03;;;0.85;;
19969;SDS011;10146;47.754;9.566;2024-02-26T03:21:28;1.00;;;0.90;;
19969;SDS011;10146;47.754;9.566;2024-02-26T03:23:53;2.58;;;1.00;;
19969;SDS011;10146;47.754;9.566;2024-02-26T03:26:19;1.85;;;1.33;;
19969;SDS011;10146;47.754;9.566;2024-02-26T03:28:45;2.60;;;1.85;;
19969;SDS011;10146;47.754;9.566;2024-02-26T03:31:10;1.17;;;1.08;;
19969;SDS011;10146;47.754;9.566;2024-02-26T03:33:36;3.20;;;0.80;;
19969;SDS011;10146;47.754;9.566;2024-02-26T03:36:01;1.38;;;0.88;;
19969;SDS011;10146;47.754;9.566;2024-02-26T03:38:28;1.25;;;0.80;;
19969;SDS011;10146;47.754;9.566;2024-02-26T03:40:54;1.00;;;0.90;;
19969;SDS011;10146;47.754;9.566;2024-02-26T03:43:19;1.05;;;0.90;;
19969;SDS011;10146;47.754;9.566;2024-02-26T03:45:45;1.63;;;1.42;;
19969;SDS011;10146;47.754;9.566;2024-02-26T03:48:11;1.13;;;1.00;;
19969;SDS011;10146;47.754;9.566;2024-02-26T03:50:36;1.40;;;1.30;;
19969;SDS011;10146;47.754;9.566;2024-02-26T03:53:02;2.08;;;1.40;;
19969;SDS011;10146;47.754;9.566;2024-02-26T03:55:28;1.67;;;1.40;;
19969;SDS011;10146;47.754;9.566;2024-02-26T03:57:53;1.52;;;1.42;;
19969;SDS011;10146;47.754;9.566;2024-02-26T04:00:19;2.92;;;1.33;;
19969;SDS011;10146;47.754;9.566;2024-02-26T04:02:46;1.52;;;1.20;;
19969;SDS011;10146;47.754;9.566;2024-02-26T04:05:12;1.67;;;1.38;;
19969;SDS011;10146;47.754;9.566;2024-02-26T04:07:38;3.03;;;1.70;;
19969;SDS011;10146;47.754;9.566;2024-02-26T04:10:08;2.40;;;1.63;;
19969;SDS011;10146;47.754;9.566;2024-02-26T04:12:40;2.33;;;2.00;;
19969;SDS011;10146;47.754;9.566;2024-02-26T04:15:10;2.03;;;1.77;;
19969;SDS011;10146;47.754;9.566;2024-02-26T04:17:36;2.55;;;1.50;;
19969;SDS011;10146;47.754;9.566;2024-02-26T04:20:02;2.05;;;1.85;;
19969;SDS011;10146;47.754;9.566;2024-02-26T04:22:28;2.10;;;1.90;;
19969;SDS011;10146;47.754;9.566;2024-02-26T04:24:54;2.15;;;1.95;;
19969;SDS011;10146;47.754;9.566;2024-02-26T04:27:20;2.47;;;1.90;;
19969;SDS011;10146;47.754;9.566;2024-02-26T04:29:45;2.08;;;1.88;;
19969;SDS011;10146;47.754;9.566;2024-02-26T04:32:11;2.15;;;1.70;;
19969;SDS011;10146;47.754;9.566;2024-02-26T04:34:36;2.17;;;1.90;;
19969;SDS011;10146;47.754;9.566;2024-02-26T04:37:02;2.20;;;2.00;;
19969;SDS011;10146;47.754;9.566;2024-02-26T04:39:28;1.77;;;1.67;;
19969;SDS011;10146;47.754;9.566;2024-02-26T04:41:53;2.63;;;1.60;;
19969;SDS011;10146;47.754;9.566;2024-02-26T04:44:19;1.83;;;1.73;;
19969;SDS011;10146;47.754;9.566;2024-02-26T04:46:45;2.30;;;1.60;;
19969;SDS011;10146;47.754;9.566;2024-02-26T04:49:10;2.22;;;2.03;;
19969;SDS011;10146;47.754;9.566;2024-02-26T04:51:36;2.72;;;1.80;;
19969;SDS011;10146;47.754;9.566;2024-02-26T04:54:02;2.42;;;2.20;;
19969;SDS011;10146;47.754;9.566;2024-02-26T04:56:28;1.90;;;1.77;;
19969;SDS011;10146;47.754;9.566;2024-02-26T04:58:53;2.38;;;2.15;;
19969;SDS011;10146;47.754;9.566;2024-02-26T05:01:19;3.17;;;2.42;;
19969;SDS011;10146;47.754;9.566;2024-02-26T05:03:44;2.60;;;2.25;;
19969;SDS011;10146;47.754;9.566;2024-02-26T05:06:10;2.97;;;2.45;;
19969;SDS011;10146;47.754;9.566;2024-02-26T05:08:35;2.38;;;2.15;;
19969;SDS011;10146;47.754;9.566;2024-02-26T05:11:03;3.90;;;2.38;;
19969;SDS011;10146;47.754;9.566;2024-02-26T05:13:29;2.45;;;2.25;;
19969;SDS011;10146;47.754;9.566;2024-02-26T05:15:55;3.80;;;2.65;;
19969;SDS011;10146;47.754;9.566;2024-02-26T05:18:21;3.50;;;2.55;;
19969;SDS011;10146;47.754;9.566;2024-02-26T05:20:47;3.97;;;2.47;;
19969;SDS011;10146;47.754;9.566;2024-02-26T05:23:12;2.25;;;1.92;;
19969;SDS011;10146;47.754;9.566;2024-02-26T05:25:38;3.00;;;2.30;;
19969;SDS011;10146;47.754;9.566;2024-02-26T05:28:04;2.20;;;2.00;;
19969;SDS011;10146;47.754;9.566;2024-02-26T05:30:29;2.58;;;2.13;;
19969;SDS011;10146;47.754;9.566;2024-02-26T05:32:55;2.10;;;1.90;;
19969;SDS011;10146;47.754;9.566;2024-02-26T05:35:21;2.25;;;2.05;;
19969;SDS011;10146;47.754;9.566;2024-02-26T05:37:46;2.45;;;2.25;;
19969;SDS011;10146;47.754;9.566;2024-02-26T05:40:12;3.20;;;2.47;;
19969;SDS011;10146;47.754;9.566;2024-02-26T05:42:38;2.58;;;2.38;;
19969;SDS011;10146;47.754;9.566;2024-02-26T05:45:03;3.35;;;2.22;;
19969;SDS011;10146;47.754;9.566;2024-02-26T05:47:33;3.55;;;2.20;;
19969;SDS011;10146;47.754;9.566;2024-02-26T05:49:59;2.30;;;1.98;;
19969;SDS011;10146;47.754;9.566;2024-02-26T05:52:26;2.50;;;2.30;;
19969;SDS011;10146;47.754;9.566;2024-02-26T05:54:52;2.40;;;2.20;;
19969;SDS011;10146;47.754;9.566;2024-02-26T05:57:18;2.30;;;2.10;;
19969;SDS011;10146;47.754;9.566;2024-02-26T05:59:44;3.20;;;2.20;;
19969;SDS011;10146;47.754;9.566;2024-02-26T06:02:10;2.83;;;2.10;;
19969;SDS011;10146;47.754;9.566;2024-02-26T06:04:35;2.05;;;1.90;;
19969;SDS011;10146;47.754;9.566;2024-02-26T06:07:01;2.45;;;2.25;;
19969;SDS011;10146;47.754;9.566;2024-02-26T06:09:27;2.67;;;2.40;;
19969;SDS011;10146;47.754;9.566;2024-02-26T06:11:52;2.33;;;2.00;;
19969;SDS011;10146;47.754;9.566;2024-02-26T06:14:18;2.17;;;1.98;;
19969;SDS011;10146;47.754;9.566;2024-02-26T06:16:45;2.20;;;1.80;;
19969;SDS011;10146;47.754;9.566;2024-02-26T06:19:11;2.85;;;2.53;;
19969;SDS011;10146;47.754;9.566;2024-02-26T06:21:37;2.63;;;2.42;;
19969;SDS011;10146;47.754;9.566;2024-02-26T06:24:02;2.40;;;2.20;;
19969;SDS011;10146;47.754;9.566;2024-02-26T06:26:28;2.88;;;2.10;;
19969;SDS011;10146;47.754;9.566;2024-02-26T06:28:54;2.63;;;2.42;;
19969;SDS011;10146;47.754;9.566;2024-02-26T06:31:23;2.67;;;2.30;;
19969;SDS011;10146;47.754;9.566;2024-02-26T06:33:49;2.22;;;1.70;;
19969;SDS011;10146;47.754;9.566;2024-02-26T06:36:17;2.58;;;2.20;;
19969;SDS011;10146;47.754;9.566;2024-02-26T06:38:43;2.35;;;2.15;;
19969;SDS011;10146;47.754;9.566;2024-02-26T06:41:09;3.03;;;2.00;;
19969;SDS011;10146;47.754;9.566;2024-02-26T06:43:34;2.40;;;2.20;;
19969;SDS011;10146;47.754;9.566;2024-02-26T06:46:00;2.03;;;1.85;;
19969;SDS011;10146;47.754;9.566;2024-02-26T06:48:26;2.45;;;1.77;;
19969;SDS011;10146;47.754;9.566;2024-02-26T06:50:51;3.50;;;2.10;;
19969;SDS011;10146;47.754;9.566;2024-02-26T06:53:17;2.28;;;1.88;;
19969;SDS011;10146;47.754;9.566;2024-02-26T06:55:42;3.13;;;2.53;;
19969;SDS011;10146;47.754;9.566;2024-02-26T06:58:08;3.55;;;3.05;;
19969;SDS011;10146;47.754;9.566;2024-02-26T07:00:34;5.60;;;2.38;;
19969;SDS011;10146;47.754;9.566;2024-02-26T07:03:00;2.20;;;2.00;;
19969;SDS011;10146;47.754;9.566;2024-02-26T07:05:26;2.20;;;2.00;;
19969;SDS011;10146;47.754;9.566;2024-02-26T07:07:52;2.80;;;2.13;;
19969;SDS011;10146;47.754;9.566;2024-02-26T07:10:18;2.25;;;1.88;;
19969;SDS011;10146;47.754;9.566;2024-02-26T07:12:43;5.30;;;2.35;;
19969;SDS011;10146;47.754;9.566;2024-02-26T07:15:09;2.10;;;1.90;;
19969;SDS011;10146;47.754;9.566;2024-02-26T07:17:35;2.40;;;2.13;;
19969;SDS011;10146;47.754;9.566;2024-02-26T07:20:01;4.55;;;2.50;;
19969;SDS011;10146;47.754;9.566;2024-02-26T07:22:29;1.90;;;1.80;;
19969;SDS011;10146;47.754;9.566;2024-02-26T07:24:55;2.47;;;2.00;;
19969;SDS011;10146;47.754;9.566;2024-02-26T07:27:20;1.90;;;1.80;;
19969;SDS011;10146;47.754;9.566;2024-02-26T07:29:46;6.30;;;3.80;;
19969;SDS011;10146;47.754;9.566;2024-02-26T07:32:12;3.47;;;2.88;;
19969;SDS011;10146;47.754;9.566;2024-02-26T07:34:38;5.65;;;4.75;;
19969;SDS011;10146;47.754;9.566;2024-02-26T07:37:06;7.00;;;4.70;;
19969;SDS011;10146;47.754;9.566;2024-02-26T07:39:32;5.82;;;4.80;;
19969;SDS011;10146;47.754;9.566;2024-02-26T07:41:58;5.55;;;4.85;;
19969;SDS011;10146;47.754;9.566;2024-02-26T07:44:23;7.03;;;5.10;;
19969;SDS011;10146;47.754;9.566;2024-02-26T07:46:49;5.88;;;5.05;;
19969;SDS011;10146;47.754;9.566;2024-02-26T07:49:15;5.82;;;4.60;;
19969;SDS011;10146;47.754;9.566;2024-02-26T07:51:40;6.20;;;4.50;;
19969;SDS011;10146;47.754;9.566;2024-02-26T07:54:06;5.13;;;4.60;;
19969;SDS011;10146;47.754;9.566;2024-02-26T07:56:31;4.75;;;4.18;;
19969;SDS011;10146;47.754;9.566;2024-02-26T07:58:57;6.80;;;4.32;;
19969;SDS011;10146;47.754;9.566;2024-02-26T08:01:23;5.70;;;4.50;;
19969;SDS011;10146;47.754;9.566;2024-02-26T08:03:49;4.43;;;3.90;;
19969;SDS011;10146;47.754;9.566;2024-02-26T08:06:16;5.38;;;4.10;;
19969;SDS011;10146;47.754;9.566;2024-02-26T08:08:42;4.95;;;4.43;;
19969;SDS011;10146;47.754;9.566;2024-02-26T08:11:08;6.15;;;5.00;;
19969;SDS011;10146;47.754;9.566;2024-02-26T08:13:34;5.25;;;4.75;;
19969;SDS011;10146;47.754;9.566;2024-02-26T08:16:00;5.90;;;4.90;;
19969;SDS011;10146;47.754;9.566;2024-02-26T08:18:26;7.53;;;4.63;;
19969;SDS011;10146;47.754;9.566;2024-02-26T08:20:52;7.85;;;5.00;;
19969;SDS011;10146;47.754;9.566;2024-02-26T08:23:17;5.20;;;4.70;;
19969;SDS011;10146;47.754;9.566;2024-02-26T08:25:43;5.65;;;4.93;;
19969;SDS011;10146;47.754;9.566;2024-02-26T08:28:09;7.40;;;5.05;;
19969;SDS011;10146;47.754;9.566;2024-02-26T08:30:38;6.32;;;4.97;;
19969;SDS011;10146;47.754;9.566;2024-02-26T08:33:03;6.68;;;5.25;;
19969;SDS011;10146;47.754;9.566;2024-02-26T08:35:29;5.50;;;4.18;;
19969;SDS011;10146;47.754;9.566;2024-02-26T08:37:55;4.60;;;4.20;;
19969;SDS011;10146;47.754;9.566;2024-02-26T08:40:21;6.63;;;5.03;;
19969;SDS011;10146;47.754;9.566;2024-02-26T08:42:46;4.90;;;4.28;;
19969;SDS011;10146;47.754;9.566;2024-02-26T08:45:12;5.47;;;4.72;;
19969;SDS011;10146;47.754;9.566;2024-02-26T08:47:38;4.75;;;3.42;;
19969;SDS011;10146;47.754;9.566;2024-02-26T08:50:04;5.40;;;4.13;;
19969;SDS011;10146;47.754;9.566;2024-02-26T08:52:30;5.10;;;4.57;;
19969;SDS011;10146;47.754;9.566;2024-02-26T08:54:56;4.15;;;3.85;;
19969;SDS011;10146;47.754;9.566;2024-02-26T08:57:22;4.57;;;4.00;;
19969;SDS011;10146;47.754;9.566;2024-02-26T08:59:48;6.80;;;3.65;;
19969;SDS011;10146;47.754;9.566;2024-02-26T09:02:13;4.57;;;4.00;;
19969;SDS011;10146;47.754;9.566;2024-02-26T09:04:39;5.25;;;4.07;;
19969;SDS011;10146;47.754;9.566;2024-02-26T09:07:05;4.20;;;3.80;;
19969;SDS011;10146;47.754;9.566;2024-02-26T09:09:31;5.72;;;3.90;;
19969;SDS011;10146;47.754;9.566;2024-02-26T09:11:57;5.57;;;3.78;;
19969;SDS011;10146;47.754;9.566;2024-02-26T09:14:22;3.63;;;3.33;;
19969;SDS011;10146;47.754;9.566;2024-02-26T09:16:48;3.88;;;3.47;;
19969;SDS011;10146;47.754;9.566;2024-02-26T09:19:14;4.05;;;3.63;;
19969;SDS011;10146;47.754;9.566;2024-02-26T09:21:43;3.80;;;3.35;;
19969;SDS011;10146;47.754;9.566;2024-02-26T09:24:09;6.30;;;3.95;;
19969;SDS011;10146;47.754;9.566;2024-02-26T09:26:36;4.47;;;3.78;;
19969;SDS011;10146;47.754;9.566;2024-02-26T09:29:02;3.42;;;3.10;;
19969;SDS011;10146;47.754;9.566;2024-02-26T09:31:29;3.90;;;3.28;;
19969;SDS011;10146;47.754;9.566;2024-02-26T09:33:54;4.13;;;3.72;;
19969;SDS011;10146;47.754;9.566;2024-02-26T09:36:20;3.40;;;3.10;;
19969;SDS011;10146;47.754;9.566;2024-02-26T09:38:46;4.50;;;3.40;;
19969;SDS011;10146;47.754;9.566;2024-02-26T09:41:15;3.78;;;3.47;;
19969;SDS011;10146;47.754;9.566;2024-02-26T09:43:42;4.22;;;3.10;;
19969;SDS011;10146;47.754;9.566;2024-02-26T09:46:10;3.15;;;2.85;;
19969;SDS011;10146;47.754;9.566;2024-02-26T09:48:35;3.20;;;2.90;;
19969;SDS011;10146;47.754;9.566;2024-02-26T09:51:02;4.68;;;3.65;;
19969;SDS011;10146;47.754;9.566;2024-02-26T09:53:29;4.00;;;3.60;;
19969;SDS011;10146;47.754;9.566;2024-02-26T09:55:59;3.80;;;3.05;;
19969;SDS011;10146;47.754;9.566;2024-02-26T09:58:26;3.95;;;3.40;;
19969;SDS011;10146;47.754;9.566;2024-02-26T10:00:55;4.70;;;3.45;;
19969;SDS011;10146;47.754;9.566;2024-02-26T10:03:25;4.70;;;3.50;;
19969;SDS011;10146;47.754;9.566;2024-02-26T10:06:01;3.78;;;3.35;;
19969;SDS011;10146;47.754;9.566;2024-02-26T10:08:29;3.88;;;3.45;;
19969;SDS011;10146;47.754;9.566;2024-02-26T10:10:57;4.78;;;3.40;;
19969;SDS011;10146;47.754;9.566;2024-02-26T10:13:23;3.58;;;3.28;;
19969;SDS011;10146;47.754;9.566;2024-02-26T10:15:48;4.20;;;3.40;;
19969;SDS011;10146;47.754;9.566;2024-02-26T10:18:14;3.22;;;2.78;;
19969;SDS011;10146;47.754;9.566;2024-02-26T10:20:40;3.05;;;2.75;;
19969;SDS011;10146;47.754;9.566;2024-02-26T10:23:05;3.78;;;3.20;;
19969;SDS011;10146;47.754;9.566;2024-02-26T10:25:31;3.85;;;3.33;;
19969;SDS011;10146;47.754;9.566;2024-02-26T10:28:00;3.95;;;3.10;;
19969;SDS011;10146;47.754;9.566;2024-02-26T10:30:29;3.30;;;2.95;;
19969;SDS011;10146;47.754;9.566;2024-02-26T10:32:55;3.10;;;2.90;;
19969;SDS011;10146;47.754;9.566;2024-02-26T10:35:22;3.70;;;2.90;;
19969;SDS011;10146;47.754;9.566;2024-02-26T10:37:49;4.85;;;3.20;;
19969;SDS011;10146;47.754;9.566;2024-02-26T10:40:15;3.53;;;3.22;;
19969;SDS011;10146;47.754;9.566;2024-02-26T10:42:41;4.07;;;3.33;;
19969;SDS011;10146;47.754;9.566;2024-02-26T10:45:08;3.80;;;3.30;;
19969;SDS011;10146;47.754;9.566;2024-02-26T10:47:34;3.60;;;3.30;;
19969;SDS011;10146;47.754;9.566;2024-02-26T10:50:04;4.20;;;3.80;;
19969;SDS011;10146;47.754;9.566;2024-02-26T10:52:31;3.83;;;3.28;;
19969;SDS011;10146;47.754;9.566;2024-02-26T10:55:04;4.80;;;2.95;;
19969;SDS011;10146;47.754;9.566;2024-02-26T10:57:33;4.05;;;3.60;;
19969;SDS011;10146;47.754;9.566;2024-02-26T11:00:02;3.67;;;3.10;;
19969;SDS011;10146;47.754;9.566;2024-02-26T11:02:34;3.97;;;3.20;;
19969;SDS011;10146;47.754;9.566;2024-02-26T11:05:04;3.58;;;2.85;;
19969;SDS011;10146;47.754;9.566;2024-02-26T11:07:31;3.55;;;3.25;;
19969;SDS011;10146;47.754;9.566;2024-02-26T11:09:59;3.15;;;2.85;;
19969;SDS011;10146;47.754;9.566;2024-02-26T11:12:25;3.67;;;2.95;;
19969;SDS011;10146;47.754;9.566;2024-02-26T11:14:54;5.00;;;3.38;;
19969;SDS011;10146;47.754;9.566;2024-02-26T11:17:21;4.45;;;3.03;;
19969;SDS011;10146;47.754;9.566;2024-02-26T11:19:49;4.28;;;2.95;;
19969;SDS011;10146;47.754;9.566;2024-02-26T11:22:16;4.25;;;2.67;;
19969;SDS011;10146;47.754;9.566;2024-02-26T11:24:42;3.65;;;2.80;;
19969;SDS011;10146;47.754;9.566;2024-02-26T11:27:09;3.58;;;2.88;;
19969;SDS011;10146;47.754;9.566;2024-02-26T11:29:41;3.35;;;2.90;;
19969;SDS011;10146;47.754;9.566;2024-02-26T11:32:12;4.20;;;2.95;;
19969;SDS011;10146;47.754;9.566;2024-02-26T11:34:38;3.67;;;2.58;;
19969;SDS011;10146;47.754;9.566;2024-02-26T11:39:40;3.65;;;2.85;;
19969;SDS011;10146;47.754;9.566;2024-02-26T11:42:07;3.28;;;2.40;;
19969;SDS011;10146;47.754;9.566;2024-02-26T11:44:34;3.33;;;2.17;;
19969;SDS011;10146;47.754;9.566;2024-02-26T11:47:14;3.33;;;2.63;;
19969;SDS011;10146;47.754;9.566;2024-02-26T11:49:43;4.10;;;2.20;;
19969;SDS011;10146;47.754;9.566;2024-02-26T11:52:09;4.25;;;2.47;;
19969;SDS011;10146;47.754;9.566;2024-02-26T11:57:19;2.45;;;2.20;;
19969;SDS011;10146;47.754;9.566;2024-02-26T11:59:45;3.42;;;2.15;;
19969;SDS011;10146;47.754;9.566;2024-02-26T12:02:10;6.47;;;2.47;;
19969;SDS011;10146;47.754;9.566;2024-02-26T12:04:37;4.38;;;2.78;;
19969;SDS011;10146;47.754;9.566;2024-02-26T12:07:03;2.92;;;2.70;;
19969;SDS011;10146;47.754;9.566;2024-02-26T12:09:48;4.13;;;2.88;;
19969;SDS011;10146;47.754;9.566;2024-02-26T12:12:17;4.22;;;2.83;;
19969;SDS011;10146;47.754;9.566;2024-02-26T12:15:01;3.40;;;2.33;;
19969;SDS011;10146;47.754;9.566;2024-02-26T12:17:27;3.83;;;2.40;;
19969;SDS011;10146;47.754;9.566;2024-02-26T12:19:53;4.30;;;2.67;;
19969;SDS011;10146;47.754;9.566;2024-02-26T12:22:20;4.60;;;2.80;;
19969;SDS011;10146;47.754;9.566;2024-02-26T12:24:46;3.88;;;2.40;;
19969;SDS011;10146;47.754;9.566;2024-02-26T12:27:11;3.35;;;2.20;;
19969;SDS011;10146;47.754;9.566;2024-02-26T12:29:37;3.55;;;2.25;;
19969;SDS011;10146;47.754;9.566;2024-02-26T12:32:06;3.67;;;2.45;;
19969;SDS011;10146;47.754;9.566;2024-02-26T12:34:32;4.95;;;2.80;;
19969;SDS011;10146;47.754;9.566;2024-02-26T12:36:58;3.60;;;2.60;;
19969;SDS011;10146;47.754;9.566;2024-02-26T12:39:23;3.38;;;2.22;;
19969;SDS011;10146;47.754;9.566;2024-02-26T12:41:49;3.03;;;2.20;;
19969;SDS011;10146;47.754;9.566;2024-02-26T12:44:23;4.32;;;2.80;;
19969;SDS011;10146;47.754;9.566;2024-02-26T12:46:50;3.97;;;2.65;;
19969;SDS011;10146;47.754;9.566;2024-02-26T12:49:16;2.95;;;2.08;;
19969;SDS011;10146;47.754;9.566;2024-02-26T12:51:43;5.05;;;2.55;;
19969;SDS011;10146;47.754;9.566;2024-02-26T12:54:09;3.90;;;2.63;;
19969;SDS011;10146;47.754;9.566;2024-02-26T12:56:35;4.10;;;2.30;;
19969;SDS011;10146;47.754;9.566;2024-02-26T12:59:01;3.00;;;2.70;;
19969;SDS011;10146;47.754;9.566;2024-02-26T13:01:28;2.47;;;2.03;;
19969;SDS011;10146;47.754;9.566;2024-02-26T13:03:55;3.53;;;1.95;;
19969;SDS011;10146;47.754;9.566;2024-02-26T13:06:21;3.63;;;1.70;;
19969;SDS011;10146;47.754;9.566;2024-02-26T13:08:47;1.60;;;1.50;;
19969;SDS011;10146;47.754;9.566;2024-02-26T13:11:13;4.93;;;1.80;;
19969;SDS011;10146;47.754;9.566;2024-02-26T13:13:39;2.50;;;1.63;;
19969;SDS011;10146;47.754;9.566;2024-02-26T13:16:05;3.53;;;1.80;;
19969;SDS011;10146;47.754;9.566;2024-02-26T13:18:33;3.70;;;1.60;;
19969;SDS011;10146;47.754;9.566;2024-02-26T13:21:09;1.73;;;1.60;;
19969;SDS011;10146;47.754;9.566;2024-02-26T13:23:39;2.90;;;1.70;;
19969;SDS011;10146;47.754;9.566;2024-02-26T13:26:05;1.63;;;1.50;;
19969;SDS011;10146;47.754;9.566;2024-02-26T13:28:31;1.75;;;1.38;;
19969;SDS011;10146;47.754;9.566;2024-02-26T13:30:57;3.03;;;1.20;;
19969;SDS011;10146;47.754;9.566;2024-02-26T13:33:25;1.67;;;1.02;;
19969;SDS011;10146;47.754;9.566;2024-02-26T13:35:55;4.53;;;1.10;;
19969;SDS011;10146;47.754;9.566;2024-02-26T13:38:21;0.95;;;0.82;;
19969;SDS011;10146;47.754;9.566;2024-02-26T13:40:47;3.20;;;0.90;;
19969;SDS011;10146;47.754;9.566;2024-02-26T13:43:13;1.38;;;0.95;;
19969;SDS011;10146;47.754;9.566;2024-02-26T13:45:39;1.52;;;0.80;;
19969;SDS011;10146;47.754;9.566;2024-02-26T13:48:05;0.88;;;0.73;;
19969;SDS011;10146;47.754;9.566;2024-02-26T13:50:32;1.95;;;1.00;;
19969;SDS011;10146;47.754;9.566;2024-02-26T13:52:58;4.18;;;0.90;;
19969;SDS011;10146;47.754;9.566;2024-02-26T13:55:27;1.52;;;1.00;;
19969;SDS011;10146;47.754;9.566;2024-02-26T13:57:58;2.45;;;1.27;;
19969;SDS011;10146;47.754;9.566;2024-02-26T14:00:26;1.27;;;0.82;;
19969;SDS011;10146;47.754;9.566;2024-02-26T14:02:53;1.27;;;0.90;;
19969;SDS011;10146;47.754;9.566;2024-02-26T14:05:18;1.75;;;1.10;;
19969;SDS011;10146;47.754;9.566;2024-02-26T14:07:45;1.40;;;0.80;;
19969;SDS011;10146;47.754;9.566;2024-02-26T14:10:13;3.05;;;1.15;;
19969;SDS011;10146;47.754;9.566;2024-02-26T14:12:40;1.17;;;1.00;;
19969;SDS011;10146;47.754;9.566;2024-02-26T14:15:06;0.80;;;0.80;;
19969;SDS011;10146;47.754;9.566;2024-02-26T14:17:33;0.90;;;0.90;;
19969;SDS011;10146;47.754;9.566;2024-02-26T14:20:01;1.65;;;1.20;;
19969;SDS011;10146;47.754;9.566;2024-02-26T14:22:28;2.67;;;0.85;;
19969;SDS011;10146;47.754;9.566;2024-02-26T14:24:55;2.38;;;0.80;;
19969;SDS011;10146;47.754;9.566;2024-02-26T14:27:21;2.20;;;1.02;;
19969;SDS011;10146;47.754;9.566;2024-02-26T14:29:47;1.85;;;0.90;;
19969;SDS011;10146;47.754;9.566;2024-02-26T14:32:13;3.20;;;1.10;;
19969;SDS011;10146;47.754;9.566;2024-02-26T14:34:39;0.98;;;0.90;;
19969;SDS011;10146;47.754;9.566;2024-02-26T14:37:04;1.00;;;0.77;;
19969;SDS011;10146;47.754;9.566;2024-02-26T14:39:33;1.35;;;0.90;;
19969;SDS011;10146;47.754;9.566;2024-02-26T14:41:59;1.00;;;0.90;;
19969;SDS011;10146;47.754;9.566;2024-02-26T14:44:25;3.25;;;1.10;;
19969;SDS011;10146;47.754;9.566;2024-02-26T14:46:51;1.00;;;0.90;;
19969;SDS011;10146;47.754;9.566;2024-02-26T14:49:17;1.70;;;0.95;;